Time;durP1;ratioP1;P1;durP2;ratioP2;P2;SDS_P1;SDS_P2;PMS_P1;PMS_P2;Temp;Humidity;BMP_temperature;BMP_pressure;BME280_temperature;BME280_humidity;BME280_pressure;Samples;Min_cycle;Max_cycle;Signal;HPM_P1;HPM_P2
2022/07/21 00:00:22;;;;;;;;;;;;;;;21.75;53.78;99812.88;5115382;28;19935;-68
2022/07/21 00:02:51;;;;;;;;;;;;;;;21.75;53.61;99815.47;5114172;28;19924;-69
2022/07/21 00:05:21;;;;;;;;;;;;;;;21.76;53.74;99814.56;5115209;28;20270;-68
2022/07/21 00:07:50;;;;;;;;;;;;;;;21.62;52.84;99819.53;5114933;28;19924;-69
2022/07/21 00:10:19;;;;;;;;;;;;;;;21.71;52.05;99811.34;5115204;28;19969;-70
2022/07/21 00:12:47;;;;;;;;;;;;;;;21.66;52.02;99800.31;5114815;28;19973;-71
2022/07/21 00:15:17;;;;;;;;;;;;;;;21.42;52.50;99796.16;5114748;28;19924;-67
2022/07/21 00:17:45;;;;;;;;;;;;;;;21.19;53.22;99805.75;5114788;28;19923;-68
2022/07/21 00:20:15;;;;;;;;;;;;;;;21.22;53.36;99804.78;5114712;28;19923;-69
2022/07/21 00:22:45;;;;;;;;;;;;;;;21.13;53.84;99806.03;5114607;27;19931;-70
2022/07/21 00:25:15;;;;;;;;;;;;;;;21.10;54.21;99802.72;5114804;28;19924;-69
2022/07/21 00:27:43;;;;;;;;;;;;;;;21.03;54.36;99804.69;5114926;28;19924;-69
2022/07/21 00:30:12;;;;;;;;;;;;;;;20.95;54.89;99806.75;5114897;28;19984;-69
2022/07/21 00:32:41;;;;;;;;;;;;;;;20.99;55.07;99797.09;5114842;28;20018;-68
2022/07/21 00:35:11;;;;;;;;;;;;;;;21.14;54.87;99792.13;5114594;28;19927;-70
2022/07/21 00:37:39;;;;;;;;;;;;;;;21.27;54.66;99793.31;5114848;28;20010;-68
2022/07/21 00:40:10;;;;;;;;;;;;;;;21.36;54.00;99797.25;5114516;28;19930;-71
2022/07/21 00:42:39;;;;;;;;;;;;;;;21.44;53.49;99800.38;5115016;28;19927;-71
2022/07/21 00:45:08;;;;;;;;;;;;;;;21.54;53.53;99800.84;5114365;28;20381;-68
2022/07/21 00:47:37;;;;;;;;;;;;;;;21.40;53.77;99798.00;5114406;28;19928;-70
2022/07/21 00:50:07;;;;;;;;;;;;;;;21.30;54.33;99798.38;5114750;28;19928;-71
2022/07/21 00:52:36;;;;;;;;;;;;;;;21.32;54.31;99796.56;5114645;28;19931;-70
2022/07/21 00:55:05;;;;;;;;;;;;;;;21.42;53.62;99801.34;5114294;28;19923;-69
2022/07/21 00:57:35;;;;;;;;;;;;;;;21.48;53.42;99801.09;5114616;28;20315;-70
2022/07/21 01:00:04;;;;;;;;;;;;;;;21.57;53.75;99803.31;5114319;28;19951;-67
2022/07/21 01:02:36;;;;;;;;;;;;;;;21.55;53.11;99805.94;5114189;28;19923;-71
2022/07/21 01:05:04;;;;;;;;;;;;;;;21.56;53.34;99815.44;5114265;28;19950;-69
2022/07/21 01:07:33;;;;;;;;;;;;;;;21.57;53.25;99811.91;5114519;28;20383;-71
2022/07/21 01:10:01;;;;;;;;;;;;;;;21.56;53.21;99809.41;5114195;28;19924;-70
2022/07/21 01:12:30;;;;;;;;;;;;;;;21.55;53.11;99805.09;5114230;28;19931;-70
2022/07/21 01:15:00;;;;;;;;;;;;;;;21.50;53.33;99794.91;5118153;28;19931;-68
2022/07/21 01:17:28;;;;;;;;;;;;;;;21.46;53.41;99802.91;5118529;28;19924;-70
2022/07/21 01:19:57;;;;;;;;;;;;;;;21.35;53.85;99790.41;5118158;28;19924;-71
2022/07/21 01:22:27;;;;;;;;;;;;;;;21.33;54.17;99798.22;5118340;28;19931;-71
2022/07/21 01:24:56;;;;;;;;;;;;;;;21.22;55.02;99803.06;5117235;28;20384;-69
2022/07/21 01:27:25;;;;;;;;;;;;;;;21.11;55.21;99810.44;5117948;28;19969;-68
2022/07/21 01:29:53;;;;;;;;;;;;;;;21.03;55.38;99809.03;5118280;28;20422;-70
2022/07/21 01:32:22;;;;;;;;;;;;;;;20.91;55.47;99805.19;5118260;27;20259;-68
2022/07/21 01:34:51;;;;;;;;;;;;;;;20.87;55.58;99792.41;5118221;28;19924;-69
2022/07/21 01:37:21;;;;;;;;;;;;;;;20.84;55.70;99802.91;5117827;28;19928;-70
2022/07/21 01:42:30;;;;;;;;;;;;;;;20.64;55.98;99803.69;5117690;28;19931;-68
2022/07/21 01:44:58;;;;;;;;;;;;;;;20.64;56.56;99806.28;5117999;28;20035;-70
2022/07/21 01:47:27;;;;;;;;;;;;;;;20.57;56.91;99800.50;5117901;28;19924;-70
2022/07/21 01:49:55;;;;;;;;;;;;;;;20.49;57.31;99806.91;5117606;28;19923;-68
2022/07/21 01:52:24;;;;;;;;;;;;;;;20.38;57.29;99809.06;5117886;28;19924;-68
2022/07/21 01:54:54;;;;;;;;;;;;;;;20.28;57.54;99812.91;5117506;28;19924;-69
2022/07/21 01:57:22;;;;;;;;;;;;;;;20.26;57.45;99812.97;5117742;28;19969;-69
2022/07/21 01:59:50;;;;;;;;;;;;;;;20.24;57.64;99808.75;5117378;28;19924;-69
2022/07/21 02:02:21;;;;;;;;;;;;;;;20.26;57.44;99804.34;5117344;28;19928;-68
2022/07/21 02:04:50;;;;;;;;;;;;;;;20.25;57.33;99807.84;5117276;28;19930;-69
2022/07/21 02:07:18;;;;;;;;;;;;;;;20.28;57.61;99812.91;5117248;28;19927;-69
2022/07/21 02:09:46;;;;;;;;;;;;;;;20.27;57.59;99808.63;5117494;28;19963;-68
2022/07/21 02:12:16;;;;;;;;;;;;;;;20.35;57.99;99806.56;5117175;28;19931;-71
2022/07/21 02:14:44;;;;;;;;;;;;;;;20.50;57.56;99801.66;5117113;28;19923;-68
2022/07/21 02:17:13;;;;;;;;;;;;;;;20.60;57.64;99792.63;5117429;28;19923;-71
2022/07/21 02:19:41;;;;;;;;;;;;;;;20.66;57.47;99788.91;5116943;28;19931;-68
2022/07/21 02:22:10;;;;;;;;;;;;;;;20.68;57.55;99794.91;5116991;27;19924;-68
2022/07/21 02:24:39;;;;;;;;;;;;;;;20.66;57.74;99799.28;5116039;28;19982;-70
2022/07/21 02:27:08;;;;;;;;;;;;;;;20.63;57.92;99799.44;5117250;28;19934;-68
2022/07/21 02:29:38;;;;;;;;;;;;;;;20.65;57.87;99788.09;5116762;28;19923;-69
2022/07/21 02:32:06;;;;;;;;;;;;;;;20.68;58.28;99792.31;5116845;28;19967;-71
2022/07/21 02:34:35;;;;;;;;;;;;;;;20.64;58.33;99795.91;5116753;28;19924;-68
2022/07/21 02:37:04;;;;;;;;;;;;;;;20.54;58.62;99790.25;5116563;27;20432;-71
2022/07/21 02:39:32;;;;;;;;;;;;;;;20.52;58.73;99786.88;5116584;28;19928;-69
2022/07/21 02:42:01;;;;;;;;;;;;;;;20.45;59.10;99800.13;5116615;28;19930;-68
2022/07/21 02:44:30;;;;;;;;;;;;;;;20.43;59.06;99791.56;5116501;28;19932;-71
2022/07/21 02:47:00;;;;;;;;;;;;;;;20.31;59.42;99789.47;5116848;28;19931;-71
2022/07/21 02:49:29;;;;;;;;;;;;;;;20.26;59.48;99793.97;5116794;28;19927;-69
2022/07/21 02:51:58;;;;;;;;;;;;;;;20.30;59.41;99800.75;5116756;28;20369;-69
2022/07/21 02:54:26;;;;;;;;;;;;;;;20.39;59.00;99800.38;5116319;28;19924;-68
2022/07/21 02:56:54;;;;;;;;;;;;;;;20.43;58.57;99808.00;5116638;28;19924;-70
2022/07/21 02:59:23;;;;;;;;;;;;;;;20.48;58.20;99806.06;5116577;27;19924;-69
2022/07/21 03:01:51;;;;;;;;;;;;;;;20.50;57.94;99798.22;5116157;28;19928;-69
2022/07/21 03:04:21;;;;;;;;;;;;;;;20.50;57.45;99804.25;5116060;28;19931;-71
2022/07/21 03:06:50;;;;;;;;;;;;;;;20.52;57.47;99802.44;5116159;28;19924;-69
2022/07/21 03:09:18;;;;;;;;;;;;;;;20.53;57.26;99804.13;5116052;28;19924;-69
2022/07/21 03:11:46;;;;;;;;;;;;;;;20.49;56.97;99802.56;5116265;28;19931;-70
2022/07/21 03:14:14;;;;;;;;;;;;;;;20.52;57.21;99809.38;5115953;28;19923;-69
2022/07/21 03:16:43;;;;;;;;;;;;;;;20.54;56.78;99810.16;5116205;28;20366;-67
2022/07/21 03:19:11;;;;;;;;;;;;;;;20.53;56.51;99813.66;5116220;28;20280;-69
2022/07/21 03:21:41;;;;;;;;;;;;;;;20.53;56.73;99808.47;5115771;28;19927;-68
2022/07/21 03:24:10;;;;;;;;;;;;;;;20.48;57.16;99805.22;5115998;28;19973;-69
2022/07/21 03:26:39;;;;;;;;;;;;;;;20.47;57.40;99804.38;5115653;28;19927;-69
2022/07/21 03:29:07;;;;;;;;;;;;;;;20.39;57.65;99801.25;5115701;28;19924;-68
2022/07/21 03:31:35;;;;;;;;;;;;;;;20.36;58.10;99810.88;5115898;28;19931;-69
2022/07/21 03:34:04;;;;;;;;;;;;;;;20.28;58.29;99815.50;5115849;28;20377;-68
2022/07/21 03:36:32;;;;;;;;;;;;;;;20.28;58.74;99812.91;5114424;28;20006;-70
2022/07/21 03:39:02;;;;;;;;;;;;;;;20.37;58.39;99808.22;5115653;28;19923;-70
2022/07/21 03:41:31;;;;;;;;;;;;;;;20.41;58.52;99811.53;5115372;28;19928;-69
2022/07/21 03:43:59;;;;;;;;;;;;;;;20.40;58.36;99802.06;5115310;28;20012;-69
2022/07/21 03:46:28;;;;;;;;;;;;;;;20.37;58.43;99809.97;5115302;28;19924;-68
2022/07/21 03:48:56;;;;;;;;;;;;;;;20.36;58.60;99806.53;5115296;28;19930;-71
2022/07/21 03:51:25;;;;;;;;;;;;;;;20.32;58.78;99810.16;5115506;28;19950;-69
2022/07/21 03:53:54;;;;;;;;;;;;;;;20.26;59.09;99812.97;5115455;28;19923;-70
2022/07/21 03:56:23;;;;;;;;;;;;;;;20.19;59.55;99814.06;5115179;28;20369;-68
2022/07/21 03:58:52;;;;;;;;;;;;;;;20.29;59.60;99819.78;5115417;28;20006;-68
2022/07/21 04:01:21;;;;;;;;;;;;;;;20.42;59.17;99815.84;5115355;28;19924;-70
2022/07/21 04:03:49;;;;;;;;;;;;;;;20.55;58.84;99807.50;5115221;28;19927;-70
2022/07/21 04:06:18;;;;;;;;;;;;;;;20.64;58.58;99806.28;5115364;28;19947;-69
2022/07/21 04:08:46;;;;;;;;;;;;;;;20.74;58.55;99812.81;5114925;28;19924;-71
2022/07/21 04:11:14;;;;;;;;;;;;;;;20.81;58.43;99813.41;5115151;28;20277;-69
2022/07/21 04:13:44;;;;;;;;;;;;;;;20.73;59.17;99809.38;5115245;28;20023;-70
2022/07/21 04:16:14;;;;;;;;;;;;;;;20.79;59.05;99813.47;5114871;28;20369;-69
2022/07/21 04:18:42;;;;;;;;;;;;;;;20.83;59.11;99820.22;5114712;28;20018;-71
2022/07/21 04:21:11;;;;;;;;;;;;;;;20.88;59.22;99823.47;5114732;28;19959;-70
2022/07/21 04:23:39;;;;;;;;;;;;;;;20.96;58.70;99829.22;5113740;28;19967;-70
2022/07/21 04:26:08;;;;;;;;;;;;;;;21.06;58.73;99833.16;5114561;28;19924;-71
2022/07/21 04:28:36;;;;;;;;;;;;;;;21.11;58.92;99833.81;5114957;28;20071;-70
2022/07/21 04:31:06;;;;;;;;;;;;;;;21.11;59.00;99833.81;5114627;28;20377;-70
2022/07/21 04:33:36;;;;;;;;;;;;;;;21.17;59.14;99832.69;5114577;28;19928;-69
2022/07/21 04:36:05;;;;;;;;;;;;;;;21.24;59.55;99832.38;5114507;28;19924;-66
2022/07/21 04:38:34;;;;;;;;;;;;;;;21.30;59.57;99819.16;5114512;28;19924;-70
2022/07/21 04:41:02;;;;;;;;;;;;;;;21.41;58.72;99825.63;5114740;28;20339;-69
2022/07/21 04:43:31;;;;;;;;;;;;;;;21.59;58.23;99824.84;5114445;28;19930;-70
2022/07/21 04:46:00;;;;;;;;;;;;;;;21.77;57.28;99821.44;5114358;28;19928;-71
2022/07/21 04:48:31;;;;;;;;;;;;;;;21.98;56.89;99830.91;5113100;28;19934;-69
2022/07/21 04:50:59;;;;;;;;;;;;;;;22.16;56.86;99830.09;5114422;28;19928;-69
2022/07/21 04:53:28;;;;;;;;;;;;;;;22.34;56.37;99831.84;5114615;28;19928;-70
2022/07/21 04:55:56;;;;;;;;;;;;;;;22.54;56.06;99834.38;5114675;28;20277;-68
2022/07/21 04:58:25;;;;;;;;;;;;;;;22.66;55.37;99831.22;5114903;28;20269;-71
2022/07/21 05:00:53;;;;;;;;;;;;;;;22.83;54.43;99834.78;5114281;28;19928;-69
2022/07/21 05:03:22;;;;;;;;;;;;;;;22.95;54.07;99834.19;5114197;28;19992;-70
2022/07/21 05:05:52;;;;;;;;;;;;;;;23.09;53.80;99834.34;5114451;28;20266;-70
2022/07/21 05:08:20;;;;;;;;;;;;;;;23.23;53.57;99824.09;5114196;28;19989;-70
2022/07/21 05:10:49;;;;;;;;;;;;;;;23.36;53.19;99830.41;5114184;28;19924;-69
2022/07/21 05:13:17;;;;;;;;;;;;;;;23.48;52.81;99835.00;5114481;28;19923;-69
2022/07/21 05:15:46;;;;;;;;;;;;;;;23.63;52.43;99838.59;5114132;28;19931;-69
2022/07/21 05:18:14;;;;;;;;;;;;;;;23.73;52.20;99835.41;5114141;28;19930;-70
2022/07/21 05:20:43;;;;;;;;;;;;;;;23.76;52.05;99835.25;5114104;28;19931;-70
2022/07/21 05:23:13;;;;;;;;;;;;;;;23.83;52.05;99828.78;5114074;28;19973;-70
2022/07/21 05:25:41;;;;;;;;;;;;;;;23.93;52.11;99835.22;5114253;28;19985;-70
2022/07/21 05:28:09;;;;;;;;;;;;;;;24.06;51.94;99832.81;5114350;28;19963;-70
2022/07/21 05:30:38;;;;;;;;;;;;;;;24.20;51.77;99834.69;5114022;28;19931;-70
2022/07/21 05:33:06;;;;;;;;;;;;;;;24.26;51.54;99829.97;5113085;28;19973;-70
2022/07/21 05:35:35;;;;;;;;;;;;;;;24.41;51.51;99830.91;5113837;28;19923;-70
2022/07/21 05:38:03;;;;;;;;;;;;;;;24.48;51.02;99837.47;5114261;28;19968;-69
2022/07/21 05:40:33;;;;;;;;;;;;;;;24.48;50.86;99830.50;5113034;28;19931;-69
2022/07/21 05:43:02;;;;;;;;;;;;;;;24.55;50.58;99836.22;5113908;28;19924;-70
2022/07/21 05:45:30;;;;;;;;;;;;;;;24.67;50.25;99831.16;5113699;28;19977;-69
2022/07/21 05:47:58;;;;;;;;;;;;;;;24.74;50.08;99831.66;5114182;28;20465;-69
2022/07/21 05:50:27;;;;;;;;;;;;;;;24.81;50.07;99829.59;5113816;28;20409;-71
2022/07/21 05:52:55;;;;;;;;;;;;;;;24.91;49.78;99838.56;5113793;28;19970;-70
2022/07/21 05:55:24;;;;;;;;;;;;;;;25.12;49.74;99843.41;5114041;28;19992;-70
2022/07/21 05:57:54;;;;;;;;;;;;;;;25.23;49.76;99841.03;5113601;28;19928;-71
2022/07/21 06:00:22;;;;;;;;;;;;;;;25.38;49.59;99843.69;5114744;28;19949;-69
2022/07/21 06:02:51;;;;;;;;;;;;;;;25.49;49.40;99846.53;5117380;28;19927;-69
2022/07/21 06:05:19;;;;;;;;;;;;;;;25.54;49.06;99849.69;5117200;27;19972;-71
2022/07/21 06:07:48;;;;;;;;;;;;;;;25.57;49.03;99849.53;5117561;28;19924;-70
2022/07/21 06:10:17;;;;;;;;;;;;;;;25.69;48.72;99848.81;5117144;28;20430;-70
2022/07/21 06:12:50;;;;;;;;;;;;;;;25.85;48.57;99849.56;5117164;28;20438;-70
2022/07/21 06:15:20;;;;;;;;;;;;;;;25.89;48.24;99856.31;5117191;28;19923;-69
2022/07/21 06:17:49;;;;;;;;;;;;;;;26.00;48.27;99848.63;5117029;28;19930;-70
2022/07/21 06:20:17;;;;;;;;;;;;;;;26.12;47.92;99845.28;5117301;28;20270;-69
2022/07/21 06:22:45;;;;;;;;;;;;;;;26.23;47.65;99848.06;5116959;28;19973;-69
2022/07/21 06:25:14;;;;;;;;;;;;;;;26.39;47.59;99842.72;5117157;28;19924;-69
2022/07/21 06:27:43;;;;;;;;;;;;;;;26.48;46.92;99845.63;5117119;28;20285;-69
2022/07/21 06:30:12;;;;;;;;;;;;;;;26.59;46.56;99837.91;5116848;28;20023;-69
2022/07/21 06:32:42;;;;;;;;;;;;;;;26.74;46.15;99845.72;5116727;28;19927;-70
2022/07/21 06:35:10;;;;;;;;;;;;;;;26.92;45.67;99844.56;5116531;28;19924;-70
2022/07/21 06:37:39;;;;;;;;;;;;;;;27.09;45.18;99842.50;5116732;28;19969;-71
2022/07/21 06:40:08;;;;;;;;;;;;;;;27.14;44.60;99842.19;5115708;28;20030;-70
2022/07/21 06:42:36;;;;;;;;;;;;;;;27.25;44.95;99844.97;5116609;28;19924;-69
2022/07/21 06:45:05;;;;;;;;;;;;;;;27.41;44.98;99843.03;5116285;28;19923;-71
2022/07/21 06:47:33;;;;;;;;;;;;;;;27.57;45.04;99843.66;5107110;28;20024;-72
2022/07/21 06:50:03;;;;;;;;;;;;;;;27.68;44.36;99843.78;5096342;28;19928;-69
2022/07/21 06:52:33;;;;;;;;;;;;;;;27.74;43.61;99850.38;5095986;28;19924;-69
2022/07/21 06:55:01;;;;;;;;;;;;;;;27.89;43.60;99850.19;5109326;28;19989;-68
2022/07/21 06:57:31;;;;;;;;;;;;;;;28.07;43.71;99847.25;5107063;28;19928;-69
2022/07/21 06:59:59;;;;;;;;;;;;;;;28.12;43.13;99850.41;5096946;28;19970;-72
2022/07/21 07:02:27;;;;;;;;;;;;;;;28.22;42.68;99838.31;5104555;28;19978;-71
2022/07/21 07:04:56;;;;;;;;;;;;;;;28.29;42.65;99847.44;5095983;28;20358;-69
2022/07/21 07:07:34;;;;;;;;;;;;;;;28.39;42.29;99843.19;5095593;28;20019;-69
2022/07/21 07:10:02;;;;;;;;;;;;;;;28.51;42.00;99844.94;5099155;28;19924;-70
2022/07/21 07:12:31;;;;;;;;;;;;;;;28.57;41.45;99847.13;5105214;28;19928;-69
2022/07/21 07:15:20;;;;;;;;;;;;;;;28.72;41.66;99845.22;5095756;28;19967;-69
2022/07/21 07:17:49;;;;;;;;;;;;;;;28.85;41.01;99840.72;5097621;28;19931;-71
2022/07/21 07:20:18;;;;;;;;;;;;;;;28.97;40.52;99845.94;5104585;28;19924;-71
2022/07/21 07:22:48;;;;;;;;;;;;;;;29.01;40.35;99844.75;5095389;28;19931;-70
2022/07/21 07:25:17;;;;;;;;;;;;;;;29.17;40.43;99841.84;5095369;28;19924;-71
2022/07/21 07:27:54;;;;;;;;;;;;;;;29.34;40.36;99838.81;5095206;28;19925;-69
2022/07/21 07:30:22;;;;;;;;;;;;;;;29.41;40.13;99834.75;5095338;28;20424;-70
2022/07/21 07:32:51;;;;;;;;;;;;;;;29.51;39.72;99834.91;5095151;28;19928;-69
2022/07/21 07:35:21;;;;;;;;;;;;;;;29.57;39.34;99830.00;5102477;28;19923;-68
2022/07/21 07:37:51;;;;;;;;;;;;;;;29.72;39.80;99833.25;5115466;28;19927;-70
2022/07/21 07:40:20;;;;;;;;;;;;;;;29.86;39.83;99833.03;5115368;27;19976;-70
2022/07/21 07:42:49;;;;;;;;;;;;;;;29.95;39.11;99829.69;5098498;28;19924;-70
2022/07/21 07:45:18;;;;;;;;;;;;;;;30.04;38.45;99830.78;5106634;28;19993;-69
2022/07/21 07:47:47;;;;;;;;;;;;;;;30.20;37.85;99820.72;5094742;28;19924;-71
2022/07/21 07:50:15;;;;;;;;;;;;;;;30.35;37.55;99822.97;5097785;28;19977;-70
2022/07/21 07:52:45;;;;;;;;;;;;;;;30.36;37.42;99813.28;5105798;28;20022;-69
2022/07/21 07:55:14;;;;;;;;;;;;;;;30.46;36.87;99820.34;5110301;28;20270;-70
2022/07/21 07:57:44;;;;;;;;;;;;;;;30.75;36.63;99814.50;5103239;28;20362;-69
2022/07/21 08:00:14;;;;;;;;;;;;;;;30.92;36.40;99813.97;5095402;28;20374;-70
2022/07/21 08:03:02;;;;;;;;;;;;;;;31.07;36.48;99815.34;5094598;28;20019;-70
2022/07/21 08:05:31;;;;;;;;;;;;;;;31.09;35.90;99808.16;5099089;28;19928;-70
2022/07/21 08:07:59;;;;;;;;;;;;;;;31.14;35.30;99811.25;5104005;28;19924;-69
2022/07/21 08:10:29;;;;;;;;;;;;;;;31.23;34.87;99810.47;5106338;28;20430;-70
2022/07/21 08:13:13;;;;;;;;;;;;;;;31.44;34.74;99813.97;5106750;28;19977;-70
2022/07/21 08:15:42;;;;;;;;;;;;;;;31.52;34.57;99815.94;5114803;28;19967;-70
2022/07/21 08:18:11;;;;;;;;;;;;;;;31.56;33.89;99815.56;5114793;28;19924;-69
2022/07/21 08:20:39;;;;;;;;;;;;;;;31.72;33.73;99801.91;5114998;28;19928;-71
2022/07/21 10:51:26;;;;;;;;;;;;;;;35.59;24.53;99664.03;4169694;22;23812;-74
2022/07/21 10:54:06;;;;;;;;;;;;;;;35.86;24.23;99708.13;5044372;28;19924;-68
2022/07/21 10:56:36;;;;;;;;;;;;;;;35.89;23.92;99707.81;5055825;28;20433;-69
2022/07/21 10:59:05;;;;;;;;;;;;;;;35.92;24.28;99708.31;5055707;28;20412;-68
2022/07/21 11:01:33;;;;;;;;;;;;;;;35.92;24.12;99694.22;5054501;28;20267;-68
2022/07/21 11:04:08;;;;;;;;;;;;;;;36.08;24.06;99699.59;5055314;28;19924;-69
2022/07/21 11:06:37;;;;;;;;;;;;;;;36.12;23.70;99692.94;5054897;28;20390;-68
2022/07/21 11:09:07;;;;;;;;;;;;;;;36.14;23.88;99690.94;5055235;28;19924;-68
2022/07/21 11:11:38;;;;;;;;;;;;;;;36.13;23.99;99691.97;5055643;28;20326;-68
2022/07/21 11:14:12;;;;;;;;;;;;;;;36.22;24.28;99683.81;5055672;28;19925;-67
2022/07/21 11:16:52;;;;;;;;;;;;;;;36.40;24.20;99681.03;5056016;28;19924;-67
2022/07/21 11:19:28;;;;;;;;;;;;;;;36.49;23.92;99679.22;5053945;28;19978;-68
2022/07/21 11:21:57;;;;;;;;;;;;;;;36.47;23.92;99676.72;5055339;28;19924;-68
2022/07/21 11:24:26;;;;;;;;;;;;;;;36.48;23.69;99673.06;5055132;28;20397;-69
2022/07/21 11:26:57;;;;;;;;;;;;;;;36.38;23.27;99677.69;5055076;28;19932;-67
2022/07/21 11:29:25;;;;;;;;;;;;;;;36.27;23.75;99670.88;5055500;28;20023;-67
2022/07/21 11:31:54;;;;;;;;;;;;;;;36.35;24.06;99672.72;5055030;28;19928;-67
2022/07/21 11:34:23;;;;;;;;;;;;;;;36.45;23.80;99668.03;5055048;28;19975;-70
2022/07/21 11:36:58;;;;;;;;;;;;;;;36.46;23.73;99652.94;5054880;28;19928;-69
2022/07/21 11:39:47;;;;;;;;;;;;;;;36.39;23.61;99660.72;5070542;28;20090;-67
2022/07/21 11:42:17;;;;;;;;;;;;;;;36.56;24.21;99656.25;5055154;28;20273;-67
2022/07/21 11:44:45;;;;;;;;;;;;;;;36.67;23.80;99651.44;5054976;28;19975;-67
2022/07/21 11:47:14;;;;;;;;;;;;;;;36.83;23.87;99651.41;5054876;28;19960;-67
2022/07/21 11:49:43;;;;;;;;;;;;;;;37.08;23.74;99649.53;5055189;28;20388;-68
2022/07/21 11:52:12;;;;;;;;;;;;;;;37.08;23.91;99654.88;5054488;28;19925;-67
2022/07/21 11:54:45;;;;;;;;;;;;;;;37.10;23.39;99652.06;5054740;28;20340;-68
2022/07/21 11:57:14;;;;;;;;;;;;;;;37.12;23.24;99644.72;5049426;28;20379;-67
2022/07/21 11:59:44;;;;;;;;;;;;;;;37.11;23.02;99638.56;5034127;28;19925;-68
2022/07/21 12:02:13;;;;;;;;;;;;;;;37.17;23.32;99645.03;5052855;28;20393;-67
2022/07/21 12:04:44;;;;;;;;;;;;;;;37.08;22.91;99643.38;5054340;28;19925;-67
2022/07/21 12:07:15;;;;;;;;;;;;;;;37.18;23.78;99646.69;5054218;28;20027;-69
2022/07/21 12:09:45;;;;;;;;;;;;;;;37.10;22.88;99641.41;5051193;28;20451;-67
2022/07/21 12:12:29;;;;;;;;;;;;;;;37.00;22.92;99640.75;5048980;28;20287;-67
2022/07/21 12:15:10;;;;;;;;;;;;;;;37.11;22.82;99640.38;5054545;28;19955;-67
2022/07/21 12:17:39;;;;;;;;;;;;;;;37.29;23.45;99635.69;5054178;28;19925;-68
2022/07/21 12:20:08;;;;;;;;;;;;;;;37.51;23.67;99634.91;5054319;28;19932;-67
2022/07/21 12:22:38;;;;;;;;;;;;;;;37.68;23.26;99630.31;5053997;28;19947;-67
2022/07/21 12:25:08;;;;;;;;;;;;;;;37.69;22.86;99627.50;5054068;28;20393;-68
2022/07/21 12:27:37;;;;;;;;;;;;;;;37.43;22.23;99616.31;5053976;28;20288;-67
2022/07/21 12:30:08;;;;;;;;;;;;;;;37.30;22.03;99621.34;5051042;28;20321;-67
2022/07/21 12:32:42;;;;;;;;;;;;;;;37.12;21.99;99612.78;5048639;28;19925;-67
2022/07/21 12:35:21;;;;;;;;;;;;;;;37.01;22.25;99615.78;5053881;28;19931;-68
2022/07/21 12:38:04;;;;;;;;;;;;;;;37.04;22.51;99615.44;5047479;28;19925;-67
2022/07/21 12:40:33;;;;;;;;;;;;;;;37.13;22.22;99609.09;5034389;28;19925;-67
2022/07/21 12:43:09;;;;;;;;;;;;;;;37.19;22.77;99614.56;5033973;28;19925;-68
2022/07/21 12:45:48;;;;;;;;;;;;;;;37.20;22.80;99610.06;5033980;28;19925;-68
2022/07/21 12:48:19;;;;;;;;;;;;;;;37.12;22.61;99607.44;5033928;28;19932;-67
2022/07/21 12:50:58;;;;;;;;;;;;;;;37.17;22.62;99607.75;5034033;28;19925;-67
2022/07/21 12:53:27;;;;;;;;;;;;;;;37.07;22.24;99599.97;5033670;28;19925;-67
2022/07/21 12:55:55;;;;;;;;;;;;;;;37.13;22.68;99603.75;5034209;28;20024;-68
2022/07/21 12:58:24;;;;;;;;;;;;;;;37.19;22.61;99608.41;5049342;28;20374;-68
2022/07/21 13:00:52;;;;;;;;;;;;;;;37.07;22.49;99596.47;5051353;28;19932;-67
2022/07/21 13:03:22;;;;;;;;;;;;;;;37.03;22.00;99592.47;5038743;28;19925;-68
2022/07/21 13:05:59;;;;;;;;;;;;;;;36.98;22.02;99590.34;5053509;28;19924;-67
2022/07/21 13:08:28;;;;;;;;;;;;;;;36.99;22.27;99585.84;5053627;28;19931;-67
2022/07/21 13:10:56;;;;;;;;;;;;;;;36.89;22.09;99576.19;5057581;28;20004;-68
2022/07/21 13:13:25;;;;;;;;;;;;;;;36.81;22.31;99584.19;5057680;28;19925;-67
2022/07/21 13:15:54;;;;;;;;;;;;;;;36.81;22.78;99575.41;5058015;28;19924;-67
2022/07/21 13:18:23;;;;;;;;;;;;;;;36.91;22.75;99574.19;5056552;28;20370;-67
2022/07/21 13:20:52;;;;;;;;;;;;;;;36.98;22.78;99578.88;5045035;28;19929;-68
2022/07/21 13:23:21;;;;;;;;;;;;;;;36.94;22.60;99579.22;5057498;28;20420;-67
2022/07/21 13:25:49;;;;;;;;;;;;;;;36.94;22.32;99568.56;5051536;28;19925;-68
2022/07/21 13:28:31;;;;;;;;;;;;;;;37.07;22.76;99567.19;5049325;28;19956;-68
2022/07/21 13:30:59;;;;;;;;;;;;;;;37.08;22.49;99566.16;5057616;28;19931;-68
2022/07/21 13:33:29;;;;;;;;;;;;;;;37.08;22.16;99569.66;5055406;28;19925;-69
2022/07/21 13:35:57;;;;;;;;;;;;;;;37.10;22.08;99566.84;5049787;28;19925;-68
2022/07/21 13:38:25;;;;;;;;;;;;;;;37.14;22.05;99560.16;5037210;28;19931;-68
2022/07/21 13:40:54;;;;;;;;;;;;;;;36.94;21.61;99557.91;5037284;28;19975;-67
2022/07/21 13:43:43;;;;;;;;;;;;;;;36.94;23.06;99549.09;5038486;28;20317;-68
2022/07/21 13:46:13;;;;;;;;;;;;;;;37.01;22.52;99551.88;5057562;28;20015;-67
2022/07/21 13:48:44;;;;;;;;;;;;;;;36.88;22.03;99550.56;5057451;28;19924;-68
2022/07/21 13:51:13;;;;;;;;;;;;;;;36.80;21.93;99555.94;5055046;28;19925;-68
2022/07/21 13:53:42;;;;;;;;;;;;;;;36.79;22.27;99554.25;5040403;28;20436;-69
2022/07/21 13:56:10;;;;;;;;;;;;;;;36.86;22.48;99549.91;5055937;28;19933;-67
2022/07/21 13:58:39;;;;;;;;;;;;;;;36.89;22.35;99549.59;5056838;28;19959;-68
2022/07/21 14:01:08;;;;;;;;;;;;;;;37.03;22.70;99555.19;5056799;28;19924;-67
2022/07/21 14:03:37;;;;;;;;;;;;;;;37.05;22.69;99545.22;5057025;28;19947;-67
2022/07/21 14:06:08;;;;;;;;;;;;;;;36.95;22.46;99548.09;5056960;28;19931;-69
2022/07/21 14:08:36;;;;;;;;;;;;;;;36.85;22.32;99548.28;5056432;28;19960;-67
2022/07/21 14:11:06;;;;;;;;;;;;;;;36.83;22.59;99539.59;5056538;28;19975;-68
2022/07/21 14:13:34;;;;;;;;;;;;;;;36.76;22.11;99537.84;5056495;28;19924;-67
2022/07/21 14:16:04;;;;;;;;;;;;;;;36.74;22.26;99539.81;5056738;28;20275;-68
2022/07/21 14:18:33;;;;;;;;;;;;;;;36.61;21.93;99535.03;5056536;28;19971;-68
2022/07/21 14:21:01;;;;;;;;;;;;;;;36.66;22.65;99538.03;5055666;28;19978;-68
2022/07/21 14:23:32;;;;;;;;;;;;;;;36.66;21.70;99534.53;5056718;28;19979;-67
2022/07/21 14:26:01;;;;;;;;;;;;;;;36.61;21.59;99534.22;5056622;28;19982;-67
2022/07/21 14:28:31;;;;;;;;;;;;;;;36.57;21.70;99538.22;5056573;28;19932;-68
2022/07/21 14:31:00;;;;;;;;;;;;;;;36.62;22.29;99526.03;5056498;28;19932;-67
2022/07/21 14:33:30;;;;;;;;;;;;;;;36.55;22.30;99535.72;5056193;28;19925;-68
2022/07/21 14:35:58;;;;;;;;;;;;;;;36.57;22.95;99532.91;5056198;28;19925;-68
2022/07/21 14:38:27;;;;;;;;;;;;;;;36.54;22.44;99523.44;5056066;28;19924;-68
2022/07/21 14:40:57;;;;;;;;;;;;;;;36.47;22.35;99533.09;5056119;28;19924;-67
2022/07/21 14:43:26;;;;;;;;;;;;;;;36.41;22.25;99523.06;5056323;28;20282;-68
2022/07/21 14:45:54;;;;;;;;;;;;;;;36.39;22.57;99519.75;5056280;28;20263;-68
2022/07/21 14:48:22;;;;;;;;;;;;;;;36.38;22.43;99512.78;5055807;28;20027;-68
2022/07/21 14:50:52;;;;;;;;;;;;;;;36.34;22.63;99519.44;5056174;28;20015;-67
2022/07/21 14:53:20;;;;;;;;;;;;;;;36.43;23.14;99515.75;5055821;28;19925;-67
2022/07/21 14:55:49;;;;;;;;;;;;;;;36.51;23.38;99518.44;5055763;28;19931;-67
2022/07/21 14:58:19;;;;;;;;;;;;;;;36.57;23.69;99515.09;5055769;28;19929;-67
2022/07/21 15:00:47;;;;;;;;;;;;;;;36.61;24.14;99505.78;5055613;28;19924;-67
2022/07/21 15:03:16;;;;;;;;;;;;;;;36.57;23.49;99515.09;5054466;28;20325;-67
2022/07/21 15:05:44;;;;;;;;;;;;;;;36.48;22.78;99513.44;5055479;28;19925;-68
2022/07/21 15:08:13;;;;;;;;;;;;;;;36.38;22.58;99512.78;5055452;28;19932;-68
2022/07/21 15:10:42;;;;;;;;;;;;;;;36.28;22.51;99512.16;5055411;28;19932;-67
2022/07/21 15:13:11;;;;;;;;;;;;;;;36.22;22.36;99507.50;5055701;28;19928;-67
2022/07/21 15:15:43;;;;;;;;;;;;;;;36.17;22.51;99509.81;5055753;28;19925;-68
2022/07/21 15:18:13;;;;;;;;;;;;;;;36.19;23.05;99502.50;5055737;28;19967;-68
2022/07/21 15:20:45;;;;;;;;;;;;;;;36.23;23.45;99506.50;5055376;28;20504;-68
2022/07/21 15:23:13;;;;;;;;;;;;;;;36.15;22.57;99502.03;5055232;28;20377;-68
2022/07/21 15:25:42;;;;;;;;;;;;;;;36.00;22.31;99498.38;5055148;28;20443;-68
2022/07/21 15:28:10;;;;;;;;;;;;;;;36.00;22.35;99494.88;5055507;28;20378;-68
2022/07/21 15:30:39;;;;;;;;;;;;;;;35.96;22.36;99496.19;5054958;28;19925;-68